sensor_id;sensor_type;location;lat;lon;timestamp;temperature;humidity
298;DHT22;133;49.626;9.680;2023-07-20T00:01:57;18.90;94.10
298;DHT22;133;49.626;9.680;2023-07-20T00:04:23;19.00;93.80
298;DHT22;133;49.626;9.680;2023-07-20T00:06:49;19.00;93.40
298;DHT22;133;49.626;9.680;2023-07-20T00:09:14;19.10;93.50
298;DHT22;133;49.626;9.680;2023-07-20T00:11:40;19.10;93.40
298;DHT22;133;49.626;9.680;2023-07-20T00:14:06;19.10;93.90
298;DHT22;133;49.626;9.680;2023-07-20T00:16:32;19.10;93.90
298;DHT22;133;49.626;9.680;2023-07-20T00:18:57;19.00;93.70
298;DHT22;133;49.626;9.680;2023-07-20T00:21:23;19.00;93.30
298;DHT22;133;49.626;9.680;2023-07-20T00:23:48;18.90;93.30
298;DHT22;133;49.626;9.680;2023-07-20T00:26:14;18.90;93.30
298;DHT22;133;49.626;9.680;2023-07-20T00:28:40;18.80;93.30
298;DHT22;133;49.626;9.680;2023-07-20T00:31:05;18.70;93.50
298;DHT22;133;49.626;9.680;2023-07-20T00:33:31;18.60;93.60
298;DHT22;133;49.626;9.680;2023-07-20T00:35:56;18.50;93.30
298;DHT22;133;49.626;9.680;2023-07-20T00:38:22;18.50;93.60
298;DHT22;133;49.626;9.680;2023-07-20T00:40:48;18.40;94.20
298;DHT22;133;49.626;9.680;2023-07-20T00:43:15;18.40;92.90
298;DHT22;133;49.626;9.680;2023-07-20T00:45:41;18.40;93.30
298;DHT22;133;49.626;9.680;2023-07-20T00:48:08;18.40;93.10
298;DHT22;133;49.626;9.680;2023-07-20T00:50:34;18.40;93.50
298;DHT22;133;49.626;9.680;2023-07-20T00:53:00;18.30;93.50
298;DHT22;133;49.626;9.680;2023-07-20T00:55:28;18.40;93.40
298;DHT22;133;49.626;9.680;2023-07-20T00:57:54;18.40;93.50
298;DHT22;133;49.626;9.680;2023-07-20T01:00:20;18.40;93.80
298;DHT22;133;49.626;9.680;2023-07-20T01:02:46;18.40;93.30
298;DHT22;133;49.626;9.680;2023-07-20T01:05:12;18.40;93.00
298;DHT22;133;49.626;9.680;2023-07-20T01:07:43;18.40;93.30
298;DHT22;133;49.626;9.680;2023-07-20T01:13:03;18.40;93.50
298;DHT22;133;49.626;9.680;2023-07-20T01:15:34;18.30;93.10
298;DHT22;133;49.626;9.680;2023-07-20T01:17:59;18.30;93.10
298;DHT22;133;49.626;9.680;2023-07-20T01:20:28;18.20;93.30
298;DHT22;133;49.626;9.680;2023-07-20T01:26:37;18.10;93.50
298;DHT22;133;49.626;9.680;2023-07-20T01:31:30;18.10;93.30
298;DHT22;133;49.626;9.680;2023-07-20T01:33:58;18.10;93.10
298;DHT22;133;49.626;9.680;2023-07-20T01:36:33;18.00;93.10
298;DHT22;133;49.626;9.680;2023-07-20T01:38:59;18.00;93.30
298;DHT22;133;49.626;9.680;2023-07-20T01:41:25;17.90;93.50
298;DHT22;133;49.626;9.680;2023-07-20T01:43:51;17.90;93.60
298;DHT22;133;49.626;9.680;2023-07-20T01:46:17;17.90;93.60
298;DHT22;133;49.626;9.680;2023-07-20T01:48:42;17.90;93.40
298;DHT22;133;49.626;9.680;2023-07-20T01:51:08;17.80;93.40
298;DHT22;133;49.626;9.680;2023-07-20T01:53:34;17.80;93.50
298;DHT22;133;49.626;9.680;2023-07-20T01:55:59;17.70;93.80
298;DHT22;133;49.626;9.680;2023-07-20T01:58:25;17.60;94.00
298;DHT22;133;49.626;9.680;2023-07-20T02:00:51;17.60;94.00
298;DHT22;133;49.626;9.680;2023-07-20T02:03:16;17.60;93.90
298;DHT22;133;49.626;9.680;2023-07-20T02:05:42;17.60;94.00
298;DHT22;133;49.626;9.680;2023-07-20T02:08:08;17.50;94.10
298;DHT22;133;49.626;9.680;2023-07-20T02:10:35;17.40;94.30
298;DHT22;133;49.626;9.680;2023-07-20T02:13:00;17.40;94.40
298;DHT22;133;49.626;9.680;2023-07-20T02:15:26;17.30;94.30
298;DHT22;133;49.626;9.680;2023-07-20T02:17:52;17.30;94.40
298;DHT22;133;49.626;9.680;2023-07-20T02:20:18;17.30;94.40
298;DHT22;133;49.626;9.680;2023-07-20T02:22:45;17.20;94.40
298;DHT22;133;49.626;9.680;2023-07-20T02:25:10;17.20;94.30
298;DHT22;133;49.626;9.680;2023-07-20T02:27:36;17.20;94.30
298;DHT22;133;49.626;9.680;2023-07-20T02:30:03;17.10;94.40
298;DHT22;133;49.626;9.680;2023-07-20T02:32:29;17.00;94.40
298;DHT22;133;49.626;9.680;2023-07-20T02:34:55;17.00;94.50
298;DHT22;133;49.626;9.680;2023-07-20T02:37:21;16.90;94.40
298;DHT22;133;49.626;9.680;2023-07-20T02:39:46;16.90;94.40
298;DHT22;133;49.626;9.680;2023-07-20T02:42:12;16.90;94.50
298;DHT22;133;49.626;9.680;2023-07-20T02:44:38;16.90;94.50
298;DHT22;133;49.626;9.680;2023-07-20T02:47:04;16.70;94.60
298;DHT22;133;49.626;9.680;2023-07-20T02:49:30;16.70;94.80
298;DHT22;133;49.626;9.680;2023-07-20T02:51:55;16.70;94.80
298;DHT22;133;49.626;9.680;2023-07-20T02:54:21;16.70;94.80
298;DHT22;133;49.626;9.680;2023-07-20T02:56:47;16.70;94.70
298;DHT22;133;49.626;9.680;2023-07-20T02:59:12;16.70;94.60
298;DHT22;133;49.626;9.680;2023-07-20T03:01:38;16.60;94.60
298;DHT22;133;49.626;9.680;2023-07-20T03:04:04;16.60;94.50
298;DHT22;133;49.626;9.680;2023-07-20T03:06:30;16.60;94.60
298;DHT22;133;49.626;9.680;2023-07-20T03:08:56;16.50;94.60
298;DHT22;133;49.626;9.680;2023-07-20T03:11:22;16.50;94.40
298;DHT22;133;49.626;9.680;2023-07-20T03:13:47;16.50;94.70
298;DHT22;133;49.626;9.680;2023-07-20T03:16:17;16.50;94.50
298;DHT22;133;49.626;9.680;2023-07-20T03:18:43;16.50;94.20
298;DHT22;133;49.626;9.680;2023-07-20T03:21:10;16.40;94.00
298;DHT22;133;49.626;9.680;2023-07-20T03:23:39;16.40;94.30
298;DHT22;133;49.626;9.680;2023-07-20T03:26:04;16.40;94.40
298;DHT22;133;49.626;9.680;2023-07-20T03:28:30;16.30;94.10
298;DHT22;133;49.626;9.680;2023-07-20T03:30:56;16.20;94.40
298;DHT22;133;49.626;9.680;2023-07-20T03:33:26;16.20;94.20
298;DHT22;133;49.626;9.680;2023-07-20T03:35:53;16.20;94.30
298;DHT22;133;49.626;9.680;2023-07-20T03:38:19;16.20;94.20
298;DHT22;133;49.626;9.680;2023-07-20T03:40:57;16.20;94.20
298;DHT22;133;49.626;9.680;2023-07-20T03:43:23;16.20;94.30
298;DHT22;133;49.626;9.680;2023-07-20T03:45:49;16.10;94.30
298;DHT22;133;49.626;9.680;2023-07-20T03:48:16;16.10;94.30
298;DHT22;133;49.626;9.680;2023-07-20T03:50:44;16.10;94.30
298;DHT22;133;49.626;9.680;2023-07-20T03:53:10;16.00;94.20
298;DHT22;133;49.626;9.680;2023-07-20T03:55:36;16.00;94.80
298;DHT22;133;49.626;9.680;2023-07-20T03:58:02;16.00;94.70
298;DHT22;133;49.626;9.680;2023-07-20T04:00:27;16.00;94.60
298;DHT22;133;49.626;9.680;2023-07-20T04:02:53;16.10;94.70
298;DHT22;133;49.626;9.680;2023-07-20T04:05:19;16.10;94.70
298;DHT22;133;49.626;9.680;2023-07-20T04:07:44;16.10;94.40
298;DHT22;133;49.626;9.680;2023-07-20T04:10:10;16.10;94.20
298;DHT22;133;49.626;9.680;2023-07-20T04:12:36;16.10;94.00
298;DHT22;133;49.626;9.680;2023-07-20T04:15:02;16.10;93.90
298;DHT22;133;49.626;9.680;2023-07-20T04:17:29;16.10;93.90
298;DHT22;133;49.626;9.680;2023-07-20T04:19:55;16.00;93.80
298;DHT22;133;49.626;9.680;2023-07-20T04:22:20;16.00;94.20
298;DHT22;133;49.626;9.680;2023-07-20T04:24:47;16.10;94.00
298;DHT22;133;49.626;9.680;2023-07-20T04:27:12;16.10;93.80
298;DHT22;133;49.626;9.680;2023-07-20T04:29:38;16.00;94.30
298;DHT22;133;49.626;9.680;2023-07-20T04:32:04;16.00;94.50
298;DHT22;133;49.626;9.680;2023-07-20T04:34:30;16.00;94.20
298;DHT22;133;49.626;9.680;2023-07-20T04:36:55;16.00;94.30
298;DHT22;133;49.626;9.680;2023-07-20T04:39:21;16.00;94.50
298;DHT22;133;49.626;9.680;2023-07-20T04:41:47;16.00;94.70
298;DHT22;133;49.626;9.680;2023-07-20T04:44:13;16.00;95.10
298;DHT22;133;49.626;9.680;2023-07-20T04:46:39;16.10;95.00
298;DHT22;133;49.626;9.680;2023-07-20T04:49:05;16.20;95.20
298;DHT22;133;49.626;9.680;2023-07-20T04:51:31;16.20;94.40
298;DHT22;133;49.626;9.680;2023-07-20T04:53:57;16.30;94.60
298;DHT22;133;49.626;9.680;2023-07-20T04:56:24;16.40;94.60
298;DHT22;133;49.626;9.680;2023-07-20T04:58:50;16.40;94.60
298;DHT22;133;49.626;9.680;2023-07-20T05:01:16;16.50;94.80
298;DHT22;133;49.626;9.680;2023-07-20T05:03:41;16.60;94.70
298;DHT22;133;49.626;9.680;2023-07-20T05:06:07;16.60;95.10
298;DHT22;133;49.626;9.680;2023-07-20T05:08:33;16.70;95.10
298;DHT22;133;49.626;9.680;2023-07-20T05:10:59;16.80;95.10
298;DHT22;133;49.626;9.680;2023-07-20T05:13:25;16.80;93.80
298;DHT22;133;49.626;9.680;2023-07-20T05:15:52;16.90;93.70
298;DHT22;133;49.626;9.680;2023-07-20T05:18:18;16.90;93.80
298;DHT22;133;49.626;9.680;2023-07-20T05:20:48;17.00;94.20
298;DHT22;133;49.626;9.680;2023-07-20T05:23:13;17.00;94.10
298;DHT22;133;49.626;9.680;2023-07-20T05:25:39;17.10;94.20
298;DHT22;133;49.626;9.680;2023-07-20T05:28:05;17.10;94.30
298;DHT22;133;49.626;9.680;2023-07-20T05:30:31;17.10;94.40
298;DHT22;133;49.626;9.680;2023-07-20T05:32:57;17.20;93.90
298;DHT22;133;49.626;9.680;2023-07-20T05:35:23;17.20;93.50
298;DHT22;133;49.626;9.680;2023-07-20T05:37:48;17.30;93.20
298;DHT22;133;49.626;9.680;2023-07-20T05:40:14;17.30;92.30
298;DHT22;133;49.626;9.680;2023-07-20T05:42:47;17.30;91.80
298;DHT22;133;49.626;9.680;2023-07-20T05:45:14;17.40;91.10
298;DHT22;133;49.626;9.680;2023-07-20T05:47:41;17.40;90.70
298;DHT22;133;49.626;9.680;2023-07-20T05:50:07;17.30;90.80
298;DHT22;133;49.626;9.680;2023-07-20T05:52:32;17.30;90.80
298;DHT22;133;49.626;9.680;2023-07-20T05:54:58;17.30;90.60
298;DHT22;133;49.626;9.680;2023-07-20T05:57:24;17.30;90.80
298;DHT22;133;49.626;9.680;2023-07-20T05:59:49;17.40;90.50
298;DHT22;133;49.626;9.680;2023-07-20T06:02:15;17.40;90.40
298;DHT22;133;49.626;9.680;2023-07-20T06:04:41;17.50;90.40
298;DHT22;133;49.626;9.680;2023-07-20T06:07:07;17.50;89.70
298;DHT22;133;49.626;9.680;2023-07-20T06:09:36;17.60;89.70
298;DHT22;133;49.626;9.680;2023-07-20T06:12:01;17.70;89.90
298;DHT22;133;49.626;9.680;2023-07-20T06:14:27;17.70;90.30
298;DHT22;133;49.626;9.680;2023-07-20T06:16:53;17.70;90.40
298;DHT22;133;49.626;9.680;2023-07-20T06:19:18;17.80;90.10
298;DHT22;133;49.626;9.680;2023-07-20T06:21:44;17.80;89.90
298;DHT22;133;49.626;9.680;2023-07-20T06:24:09;17.90;89.70
298;DHT22;133;49.626;9.680;2023-07-20T06:26:35;17.90;89.70
298;DHT22;133;49.626;9.680;2023-07-20T06:29:06;18.00;89.40
298;DHT22;133;49.626;9.680;2023-07-20T06:31:32;18.10;89.20
298;DHT22;133;49.626;9.680;2023-07-20T06:33:58;18.10;88.90
298;DHT22;133;49.626;9.680;2023-07-20T06:36:24;18.20;88.90
298;DHT22;133;49.626;9.680;2023-07-20T06:38:51;18.20;88.50
298;DHT22;133;49.626;9.680;2023-07-20T06:41:17;18.20;87.70
298;DHT22;133;49.626;9.680;2023-07-20T06:43:43;18.30;87.40
298;DHT22;133;49.626;9.680;2023-07-20T06:46:08;18.30;86.70
298;DHT22;133;49.626;9.680;2023-07-20T06:48:34;18.40;86.40
298;DHT22;133;49.626;9.680;2023-07-20T06:50:59;18.50;85.60
298;DHT22;133;49.626;9.680;2023-07-20T06:53:25;18.50;85.60
298;DHT22;133;49.626;9.680;2023-07-20T06:55:50;18.60;84.30
298;DHT22;133;49.626;9.680;2023-07-20T06:58:16;18.50;83.10
298;DHT22;133;49.626;9.680;2023-07-20T07:00:43;18.60;83.60
298;DHT22;133;49.626;9.680;2023-07-20T07:03:08;18.70;82.80
298;DHT22;133;49.626;9.680;2023-07-20T07:05:37;18.70;82.00
298;DHT22;133;49.626;9.680;2023-07-20T07:08:04;18.80;82.00
298;DHT22;133;49.626;9.680;2023-07-20T07:10:30;18.80;81.30
298;DHT22;133;49.626;9.680;2023-07-20T07:12:56;18.90;80.80
298;DHT22;133;49.626;9.680;2023-07-20T07:15:21;19.00;80.20
298;DHT22;133;49.626;9.680;2023-07-20T07:17:47;19.00;78.60
298;DHT22;133;49.626;9.680;2023-07-20T07:20:13;19.10;78.90
298;DHT22;133;49.626;9.680;2023-07-20T07:22:39;19.10;79.00
298;DHT22;133;49.626;9.680;2023-07-20T07:25:04;19.20;78.10
298;DHT22;133;49.626;9.680;2023-07-20T07:27:30;19.20;77.50
298;DHT22;133;49.626;9.680;2023-07-20T07:29:56;19.30;77.10
298;DHT22;133;49.626;9.680;2023-07-20T07:32:21;19.40;77.10
298;DHT22;133;49.626;9.680;2023-07-20T07:34:47;19.50;76.80
298;DHT22;133;49.626;9.680;2023-07-20T07:37:14;19.50;76.50
298;DHT22;133;49.626;9.680;2023-07-20T07:39:39;19.50;76.40
298;DHT22;133;49.626;9.680;2023-07-20T07:42:05;19.60;75.60
298;DHT22;133;49.626;9.680;2023-07-20T07:44:31;19.60;75.30
298;DHT22;133;49.626;9.680;2023-07-20T07:46:57;19.70;75.20
298;DHT22;133;49.626;9.680;2023-07-20T07:49:23;19.90;75.10
298;DHT22;133;49.626;9.680;2023-07-20T07:51:48;20.00;74.90
298;DHT22;133;49.626;9.680;2023-07-20T07:54:14;20.10;73.20
298;DHT22;133;49.626;9.680;2023-07-20T07:56:40;20.30;73.40
298;DHT22;133;49.626;9.680;2023-07-20T07:59:06;20.50;72.10
298;DHT22;133;49.626;9.680;2023-07-20T08:01:32;20.70;72.30
298;DHT22;133;49.626;9.680;2023-07-20T08:03:58;20.80;71.10
298;DHT22;133;49.626;9.680;2023-07-20T08:06:23;20.90;71.00
298;DHT22;133;49.626;9.680;2023-07-20T08:08:50;21.00;70.80
298;DHT22;133;49.626;9.680;2023-07-20T08:11:15;21.10;71.40
298;DHT22;133;49.626;9.680;2023-07-20T08:13:43;21.10;70.40
298;DHT22;133;49.626;9.680;2023-07-20T08:16:09;21.20;70.30
298;DHT22;133;49.626;9.680;2023-07-20T08:18:34;21.20;69.50
298;DHT22;133;49.626;9.680;2023-07-20T08:21:00;21.20;69.20
298;DHT22;133;49.626;9.680;2023-07-20T08:23:26;21.10;68.80
298;DHT22;133;49.626;9.680;2023-07-20T08:25:53;21.20;70.10
298;DHT22;133;49.626;9.680;2023-07-20T08:28:18;21.40;67.80
298;DHT22;133;49.626;9.680;2023-07-20T08:30:48;21.50;67.70
298;DHT22;133;49.626;9.680;2023-07-20T08:33:18;21.30;67.20
298;DHT22;133;49.626;9.680;2023-07-20T08:35:45;21.40;66.40
298;DHT22;133;49.626;9.680;2023-07-20T08:38:11;21.40;66.60
298;DHT22;133;49.626;9.680;2023-07-20T08:40:41;21.60;66.70
298;DHT22;133;49.626;9.680;2023-07-20T08:43:07;21.60;64.80
298;DHT22;133;49.626;9.680;2023-07-20T08:45:34;21.30;65.10
298;DHT22;133;49.626;9.680;2023-07-20T08:48:01;21.30;65.50
298;DHT22;133;49.626;9.680;2023-07-20T08:50:30;21.30;65.30
298;DHT22;133;49.626;9.680;2023-07-20T08:52:58;21.40;64.00
298;DHT22;133;49.626;9.680;2023-07-20T08:55:28;21.60;63.50
298;DHT22;133;49.626;9.680;2023-07-20T08:57:58;21.70;63.00
298;DHT22;133;49.626;9.680;2023-07-20T09:00:25;21.90;63.40
298;DHT22;133;49.626;9.680;2023-07-20T09:02:52;22.30;61.70
298;DHT22;133;49.626;9.680;2023-07-20T09:05:22;22.80;61.50
298;DHT22;133;49.626;9.680;2023-07-20T09:07:48;23.20;60.90
298;DHT22;133;49.626;9.680;2023-07-20T09:10:14;23.40;60.30
298;DHT22;133;49.626;9.680;2023-07-20T09:12:42;23.20;59.00
298;DHT22;133;49.626;9.680;2023-07-20T09:15:11;22.90;59.80
298;DHT22;133;49.626;9.680;2023-07-20T09:17:37;22.70;62.60
298;DHT22;133;49.626;9.680;2023-07-20T09:20:07;22.70;63.80
298;DHT22;133;49.626;9.680;2023-07-20T09:22:39;22.50;64.20
298;DHT22;133;49.626;9.680;2023-07-20T09:25:17;22.40;64.40
298;DHT22;133;49.626;9.680;2023-07-20T09:27:46;22.30;65.00
298;DHT22;133;49.626;9.680;2023-07-20T09:30:14;22.20;64.40
298;DHT22;133;49.626;9.680;2023-07-20T09:32:45;22.00;64.40
298;DHT22;133;49.626;9.680;2023-07-20T09:35:15;22.00;64.30
298;DHT22;133;49.626;9.680;2023-07-20T09:38:07;22.20;64.50
298;DHT22;133;49.626;9.680;2023-07-20T09:40:37;23.50;62.70
298;DHT22;133;49.626;9.680;2023-07-20T09:43:08;24.90;57.90
298;DHT22;133;49.626;9.680;2023-07-20T09:45:41;26.30;55.30
298;DHT22;133;49.626;9.680;2023-07-20T09:48:08;27.30;52.60
298;DHT22;133;49.626;9.680;2023-07-20T09:50:40;28.30;50.50
298;DHT22;133;49.626;9.680;2023-07-20T09:53:09;29.30;48.40
298;DHT22;133;49.626;9.680;2023-07-20T09:55:37;29.30;47.90
298;DHT22;133;49.626;9.680;2023-07-20T09:58:04;30.10;45.90
298;DHT22;133;49.626;9.680;2023-07-20T10:00:34;28.90;47.20
298;DHT22;133;49.626;9.680;2023-07-20T10:03:06;28.30;48.70
298;DHT22;133;49.626;9.680;2023-07-20T10:05:40;27.90;48.70
298;DHT22;133;49.626;9.680;2023-07-20T10:08:20;28.20;50.80
298;DHT22;133;49.626;9.680;2023-07-20T10:10:49;27.90;52.00
298;DHT22;133;49.626;9.680;2023-07-20T10:13:22;27.40;53.20
298;DHT22;133;49.626;9.680;2023-07-20T10:16:01;26.70;53.70
298;DHT22;133;49.626;9.680;2023-07-20T10:18:34;27.10;53.30
298;DHT22;133;49.626;9.680;2023-07-20T10:21:06;27.70;52.80
298;DHT22;133;49.626;9.680;2023-07-20T10:23:33;28.40;50.70
298;DHT22;133;49.626;9.680;2023-07-20T10:26:01;28.30;50.10
298;DHT22;133;49.626;9.680;2023-07-20T10:28:27;27.90;51.30
298;DHT22;133;49.626;9.680;2023-07-20T10:30:53;27.40;51.60
298;DHT22;133;49.626;9.680;2023-07-20T10:33:20;27.20;51.80
298;DHT22;133;49.626;9.680;2023-07-20T10:35:57;27.30;51.00
298;DHT22;133;49.626;9.680;2023-07-20T10:38:42;27.40;50.60
298;DHT22;133;49.626;9.680;2023-07-20T10:41:22;26.70;50.40
298;DHT22;133;49.626;9.680;2023-07-20T10:43:50;26.40;51.10
298;DHT22;133;49.626;9.680;2023-07-20T10:46:43;26.50;50.30
298;DHT22;133;49.626;9.680;2023-07-20T10:49:11;27.10;49.40
298;DHT22;133;49.626;9.680;2023-07-20T10:51:46;28.10;49.60
298;DHT22;133;49.626;9.680;2023-07-20T10:56:47;30.20;44.50
298;DHT22;133;49.626;9.680;2023-07-20T11:01:55;29.60;46.50
298;DHT22;133;49.626;9.680;2023-07-20T11:04:45;29.70;45.10
298;DHT22;133;49.626;9.680;2023-07-20T11:07:16;28.30;46.40
298;DHT22;133;49.626;9.680;2023-07-20T11:09:42;27.30;48.70
298;DHT22;133;49.626;9.680;2023-07-20T11:14:43;26.40;51.00
298;DHT22;133;49.626;9.680;2023-07-20T11:17:13;27.00;50.70
298;DHT22;133;49.626;9.680;2023-07-20T11:19:40;27.80;47.30
298;DHT22;133;49.626;9.680;2023-07-20T11:22:07;28.50;47.80
298;DHT22;133;49.626;9.680;2023-07-20T11:24:40;28.80;46.40
298;DHT22;133;49.626;9.680;2023-07-20T11:27:06;28.70;45.70
298;DHT22;133;49.626;9.680;2023-07-20T11:29:31;28.60;45.90
298;DHT22;133;49.626;9.680;2023-07-20T11:31:57;27.90;47.90
298;DHT22;133;49.626;9.680;2023-07-20T11:34:26;28.00;48.10
298;DHT22;133;49.626;9.680;2023-07-20T11:36:53;28.60;47.90
298;DHT22;133;49.626;9.680;2023-07-20T11:39:22;29.40;43.60
298;DHT22;133;49.626;9.680;2023-07-20T11:41:50;29.30;45.00
298;DHT22;133;49.626;9.680;2023-07-20T11:44:17;28.60;46.30
298;DHT22;133;49.626;9.680;2023-07-20T11:46:44;27.40;48.50
298;DHT22;133;49.626;9.680;2023-07-20T11:49:12;26.20;50.30
298;DHT22;133;49.626;9.680;2023-07-20T11:51:39;26.00;51.20
298;DHT22;133;49.626;9.680;2023-07-20T11:54:09;26.80;50.90
298;DHT22;133;49.626;9.680;2023-07-20T11:56:35;27.30;49.80
298;DHT22;133;49.626;9.680;2023-07-20T11:59:01;27.70;48.50
298;DHT22;133;49.626;9.680;2023-07-20T12:01:29;28.50;46.60
298;DHT22;133;49.626;9.680;2023-07-20T12:04:00;28.50;45.70
298;DHT22;133;49.626;9.680;2023-07-20T12:06:28;28.80;45.00
298;DHT22;133;49.626;9.680;2023-07-20T12:08:58;29.40;45.80
298;DHT22;133;49.626;9.680;2023-07-20T12:11:43;29.90;44.50
298;DHT22;133;49.626;9.680;2023-07-20T12:14:10;30.40;43.80
298;DHT22;133;49.626;9.680;2023-07-20T12:16:37;30.30;42.90
298;DHT22;133;49.626;9.680;2023-07-20T12:19:05;30.30;41.50
298;DHT22;133;49.626;9.680;2023-07-20T12:21:33;29.40;43.70
298;DHT22;133;49.626;9.680;2023-07-20T12:23:59;29.70;44.10
298;DHT22;133;49.626;9.680;2023-07-20T12:26:26;30.30;43.80
298;DHT22;133;49.626;9.680;2023-07-20T12:28:54;30.70;42.30
298;DHT22;133;49.626;9.680;2023-07-20T12:31:20;29.50;43.30
298;DHT22;133;49.626;9.680;2023-07-20T12:33:49;29.90;44.00
298;DHT22;133;49.626;9.680;2023-07-20T12:36:15;30.40;43.70
298;DHT22;133;49.626;9.680;2023-07-20T12:38:40;30.70;43.00
298;DHT22;133;49.626;9.680;2023-07-20T12:41:09;30.90;43.40
298;DHT22;133;49.626;9.680;2023-07-20T12:43:34;31.00;42.30
298;DHT22;133;49.626;9.680;2023-07-20T12:46:00;30.80;42.50
298;DHT22;133;49.626;9.680;2023-07-20T12:48:26;30.00;43.90
298;DHT22;133;49.626;9.680;2023-07-20T12:50:52;30.50;42.40
298;DHT22;133;49.626;9.680;2023-07-20T12:53:18;30.20;41.50
298;DHT22;133;49.626;9.680;2023-07-20T12:55:46;30.60;41.30
298;DHT22;133;49.626;9.680;2023-07-20T12:58:12;30.20;41.20
298;DHT22;133;49.626;9.680;2023-07-20T13:00:39;30.50;41.50
298;DHT22;133;49.626;9.680;2023-07-20T13:03:06;31.00;41.50
298;DHT22;133;49.626;9.680;2023-07-20T13:05:32;31.30;40.30
298;DHT22;133;49.626;9.680;2023-07-20T13:08:02;31.40;39.80
298;DHT22;133;49.626;9.680;2023-07-20T13:10:28;32.30;38.00
298;DHT22;133;49.626;9.680;2023-07-20T13:12:54;31.80;38.80
298;DHT22;133;49.626;9.680;2023-07-20T13:15:20;32.10;39.40
298;DHT22;133;49.626;9.680;2023-07-20T13:17:46;31.80;39.50
298;DHT22;133;49.626;9.680;2023-07-20T13:20:12;31.50;39.30
298;DHT22;133;49.626;9.680;2023-07-20T13:22:40;31.10;41.20
298;DHT22;133;49.626;9.680;2023-07-20T13:25:06;30.30;43.50
298;DHT22;133;49.626;9.680;2023-07-20T13:27:32;29.90;44.70
298;DHT22;133;49.626;9.680;2023-07-20T13:29:59;29.40;43.90
298;DHT22;133;49.626;9.680;2023-07-20T13:32:26;29.20;45.60
298;DHT22;133;49.626;9.680;2023-07-20T13:34:52;29.00;44.20
298;DHT22;133;49.626;9.680;2023-07-20T13:37:18;28.40;45.20
298;DHT22;133;49.626;9.680;2023-07-20T13:39:44;28.60;46.10
298;DHT22;133;49.626;9.680;2023-07-20T13:42:10;28.80;45.40
298;DHT22;133;49.626;9.680;2023-07-20T13:44:37;28.10;44.40
298;DHT22;133;49.626;9.680;2023-07-20T13:47:04;27.60;44.50
298;DHT22;133;49.626;9.680;2023-07-20T13:49:32;27.50;44.70
298;DHT22;133;49.626;9.680;2023-07-20T13:51:58;27.20;45.20
298;DHT22;133;49.626;9.680;2023-07-20T13:54:24;27.10;45.20
298;DHT22;133;49.626;9.680;2023-07-20T13:56:51;27.20;46.10
298;DHT22;133;49.626;9.680;2023-07-20T13:59:19;27.40;45.70
298;DHT22;133;49.626;9.680;2023-07-20T14:01:45;27.70;46.50
298;DHT22;133;49.626;9.680;2023-07-20T14:04:12;27.70;46.80
298;DHT22;133;49.626;9.680;2023-07-20T14:06:38;27.70;46.70
298;DHT22;133;49.626;9.680;2023-07-20T14:09:04;27.80;46.90
298;DHT22;133;49.626;9.680;2023-07-20T14:11:29;27.80;47.60
298;DHT22;133;49.626;9.680;2023-07-20T14:13:55;27.80;49.00
298;DHT22;133;49.626;9.680;2023-07-20T14:16:24;28.00;48.50
298;DHT22;133;49.626;9.680;2023-07-20T14:18:50;28.30;47.80
298;DHT22;133;49.626;9.680;2023-07-20T14:21:17;28.70;46.90
298;DHT22;133;49.626;9.680;2023-07-20T14:23:45;28.70;46.50
298;DHT22;133;49.626;9.680;2023-07-20T14:26:12;28.60;46.20
298;DHT22;133;49.626;9.680;2023-07-20T14:28:47;28.40;45.50
298;DHT22;133;49.626;9.680;2023-07-20T14:31:13;28.10;45.50
298;DHT22;133;49.626;9.680;2023-07-20T14:33:39;27.70;46.30
298;DHT22;133;49.626;9.680;2023-07-20T14:36:05;27.50;46.50
298;DHT22;133;49.626;9.680;2023-07-20T14:38:33;27.80;46.10
298;DHT22;133;49.626;9.680;2023-07-20T14:40:59;27.80;47.80
298;DHT22;133;49.626;9.680;2023-07-20T14:43:24;27.60;48.20
298;DHT22;133;49.626;9.680;2023-07-20T14:45:50;27.40;48.30
298;DHT22;133;49.626;9.680;2023-07-20T14:48:16;27.20;48.00
298;DHT22;133;49.626;9.680;2023-07-20T14:50:41;27.20;48.60
298;DHT22;133;49.626;9.680;2023-07-20T14:53:12;27.50;48.10
298;DHT22;133;49.626;9.680;2023-07-20T14:55:38;28.00;47.40
298;DHT22;133;49.626;9.680;2023-07-20T14:58:04;28.20;48.10
298;DHT22;133;49.626;9.680;2023-07-20T15:00:29;28.50;48.60
298;DHT22;133;49.626;9.680;2023-07-20T15:02:56;28.40;48.10
298;DHT22;133;49.626;9.680;2023-07-20T15:05:23;28.30;48.10
298;DHT22;133;49.626;9.680;2023-07-20T15:07:49;28.10;47.90
298;DHT22;133;49.626;9.680;2023-07-20T15:10:15;27.90;48.20
298;DHT22;133;49.626;9.680;2023-07-20T15:12:41;27.60;48.50
298;DHT22;133;49.626;9.680;2023-07-20T15:15:08;27.70;48.50
298;DHT22;133;49.626;9.680;2023-07-20T15:17:35;27.70;49.10
298;DHT22;133;49.626;9.680;2023-07-20T15:20:02;27.80;48.30
298;DHT22;133;49.626;9.680;2023-07-20T15:22:33;28.00;49.40
298;DHT22;133;49.626;9.680;2023-07-20T15:24:59;28.30;48.40
298;DHT22;133;49.626;9.680;2023-07-20T15:27:26;28.50;47.90
298;DHT22;133;49.626;9.680;2023-07-20T15:29:52;28.60;48.20
298;DHT22;133;49.626;9.680;2023-07-20T15:32:20;28.80;47.30
298;DHT22;133;49.626;9.680;2023-07-20T15:34:46;28.90;47.20
298;DHT22;133;49.626;9.680;2023-07-20T15:37:12;29.20;46.40
298;DHT22;133;49.626;9.680;2023-07-20T15:39:39;29.30;46.10
298;DHT22;133;49.626;9.680;2023-07-20T15:42:05;29.20;46.50
298;DHT22;133;49.626;9.680;2023-07-20T15:44:31;29.20;46.50
298;DHT22;133;49.626;9.680;2023-07-20T15:46:57;29.00;46.60
298;DHT22;133;49.626;9.680;2023-07-20T15:49:23;29.00;46.50
298;DHT22;133;49.626;9.680;2023-07-20T15:51:56;28.90;46.10
298;DHT22;133;49.626;9.680;2023-07-20T15:54:21;28.60;46.80
298;DHT22;133;49.626;9.680;2023-07-20T15:56:47;28.80;46.50
298;DHT22;133;49.626;9.680;2023-07-20T15:59:15;28.70;46.20
298;DHT22;133;49.626;9.680;2023-07-20T16:01:41;28.50;46.90
298;DHT22;133;49.626;9.680;2023-07-20T16:04:08;28.20;47.80
298;DHT22;133;49.626;9.680;2023-07-20T16:06:34;27.60;48.40
298;DHT22;133;49.626;9.680;2023-07-20T16:09:04;27.60;48.80
298;DHT22;133;49.626;9.680;2023-07-20T16:11:43;27.90;49.10
298;DHT22;133;49.626;9.680;2023-07-20T16:14:08;28.00;48.10
298;DHT22;133;49.626;9.680;2023-07-20T16:16:37;28.10;47.20
298;DHT22;133;49.626;9.680;2023-07-20T16:19:03;28.30;47.20
298;DHT22;133;49.626;9.680;2023-07-20T16:21:29;28.40;46.80
298;DHT22;133;49.626;9.680;2023-07-20T16:23:55;28.30;46.90
298;DHT22;133;49.626;9.680;2023-07-20T16:26:21;28.50;47.00
298;DHT22;133;49.626;9.680;2023-07-20T16:28:46;28.70;46.70
298;DHT22;133;49.626;9.680;2023-07-20T16:31:13;28.90;46.40
298;DHT22;133;49.626;9.680;2023-07-20T16:33:40;29.10;46.40
298;DHT22;133;49.626;9.680;2023-07-20T16:36:14;28.70;46.20
298;DHT22;133;49.626;9.680;2023-07-20T16:38:40;28.60;46.00
298;DHT22;133;49.626;9.680;2023-07-20T16:41:07;28.50;46.00
298;DHT22;133;49.626;9.680;2023-07-20T16:43:36;28.10;46.90
298;DHT22;133;49.626;9.680;2023-07-20T16:46:04;28.30;46.30
298;DHT22;133;49.626;9.680;2023-07-20T16:48:30;28.20;46.60
298;DHT22;133;49.626;9.680;2023-07-20T16:50:56;28.20;47.00